Time;durP1;ratioP1;P1;durP2;ratioP2;P2;SDS_P1;SDS_P2;PMS_P1;PMS_P2;Temp;Humidity;BMP_temperature;BMP_pressure;BME280_temperature;BME280_humidity;BME280_pressure;Samples;Min_cycle;Max_cycle;Signal;HPM_P1;HPM_P2
2020/12/18 00:00:31;;;;;;;18.75;8.05;;;;;;;4.75;100.00;101749.44;4939159;29;20094;-72
2020/12/18 00:02:56;;;;;;;17.60;8.00;;;;;;;4.69;100.00;101746.06;4936919;29;20043;-72
2020/12/18 00:05:22;;;;;;;26.58;7.72;;;;;;;4.68;100.00;101742.53;4934213;29;20039;-71
2020/12/18 00:07:47;;;;;;;22.77;9.50;;;;;;;4.85;100.00;101739.47;4930948;29;20570;-71
2020/12/18 00:10:13;;;;;;;32.47;10.45;;;;;;;4.82;100.00;101743.06;4932527;29;20413;-71
2020/12/18 00:12:38;;;;;;;21.73;8.02;;;;;;;4.81;100.00;101738.63;4930213;29;20027;-71
2020/12/18 00:15:04;;;;;;;22.02;8.88;;;;;;;4.72;100.00;101744.19;4935759;29;20039;-71
2020/12/18 00:17:29;;;;;;;18.65;7.82;;;;;;;4.71;100.00;101745.09;4932757;29;20538;-71
2020/12/18 00:19:54;;;;;;;18.05;7.60;;;;;;;4.69;100.00;101751.38;4918878;29;20083;-72
2020/12/18 00:22:20;;;;;;;17.13;7.88;;;;;;;4.60;100.00;101747.16;4928539;29;20119;-71
2020/12/18 00:24:45;;;;;;;17.35;7.70;;;;;;;4.53;100.00;101748.19;4934996;29;20059;-71
2020/12/18 00:27:11;;;;;;;18.17;7.30;;;;;;;4.49;100.00;101746.53;4930004;29;20090;-71
2020/12/18 00:29:36;;;;;;;12.85;6.43;;;;;;;4.45;100.00;101744.81;4931335;29;20048;-71
2020/12/18 00:32:05;;;;;;;15.88;6.53;;;;;;;4.42;100.00;101752.88;4931968;29;20034;-71
2020/12/18 00:34:30;;;;;;;18.23;7.05;;;;;;;4.42;100.00;101751.09;4914979;29;20036;-72
2020/12/18 00:36:56;;;;;;;24.73;8.18;;;;;;;4.36;100.00;101742.41;4931787;29;20035;-71
2020/12/18 00:39:21;;;;;;;17.38;7.00;;;;;;;4.33;100.00;101745.97;4925538;29;20027;-71
2020/12/18 00:41:51;;;;;;;19.45;7.35;;;;;;;4.28;100.00;101747.00;4911868;29;20036;-71
2020/12/18 00:44:17;;;;;;;18.95;8.70;;;;;;;4.24;100.00;101740.88;4928449;29;20118;-71
2020/12/18 00:46:42;;;;;;;16.00;6.13;;;;;;;4.21;100.00;101742.72;4931800;29;20126;-71
2020/12/18 00:49:09;;;;;;;18.15;6.75;;;;;;;4.19;100.00;101744.56;4946230;28;20027;-71
2020/12/18 00:51:34;;;;;;;15.93;7.03;;;;;;;4.18;100.00;101745.47;4932472;28;20678;-71
2020/12/18 00:54:00;;;;;;;20.95;6.57;;;;;;;4.15;100.00;101746.38;4944468;28;20027;-71
2020/12/18 00:56:26;;;;;;;21.10;7.55;;;;;;;4.21;100.00;101735.63;4933703;28;20035;-71
2020/12/18 00:58:52;;;;;;;18.83;7.68;;;;;;;4.33;100.00;101745.09;4937104;28;20110;-71
2020/12/18 01:01:20;;;;;;;24.58;8.38;;;;;;;4.41;100.00;101732.53;4937854;28;20066;-71
2020/12/18 01:03:45;;;;;;;18.63;7.07;;;;;;;4.37;100.00;101730.84;4919092;29;20051;-71
2020/12/18 01:06:12;;;;;;;19.80;7.28;;;;;;;4.39;100.00;101744.97;4947951;28;20035;-71
2020/12/18 01:08:47;;;;;;;15.32;7.32;;;;;;;4.44;100.00;101732.47;4942145;28;20038;-71
2020/12/18 01:11:17;;;;;;;20.27;7.95;;;;;;;4.59;100.00;101732.09;4934235;29;20031;-71
2020/12/18 01:13:42;;;;;;;19.70;7.85;;;;;;;4.48;100.00;101724.38;4948125;28;20419;-71
2020/12/18 01:16:11;;;;;;;19.70;7.32;;;;;;;4.52;100.00;101727.81;4957361;28;20067;-71
2020/12/18 01:18:38;;;;;;;20.77;7.38;;;;;;;4.54;100.00;101728.69;4967486;28;20027;-71
2020/12/18 01:21:04;;;;;;;16.05;7.85;;;;;;;4.40;100.00;101730.78;4950165;29;20031;-71
2020/12/18 01:23:34;;;;;;;22.48;6.88;;;;;;;4.32;100.00;101730.94;4934778;29;20387;-71
2020/12/18 01:26:04;;;;;;;20.40;6.32;;;;;;;4.27;100.00;101746.13;4963355;28;20077;-71
2020/12/18 01:28:30;;;;;;;17.10;7.25;;;;;;;4.19;100.00;101741.91;4948716;28;20062;-71
2020/12/18 01:30:55;;;;;;;20.38;6.85;;;;;;;4.19;100.00;101744.56;4934525;29;20058;-71
2020/12/18 01:33:24;;;;;;;15.27;6.35;;;;;;;4.13;100.00;101744.69;4935316;28;20065;-71
2020/12/18 01:35:49;;;;;;;13.77;7.05;;;;;;;4.10;100.00;101742.06;4933710;29;20063;-71
2020/12/18 01:38:15;;;;;;;17.15;6.90;;;;;;;4.14;100.00;101744.63;4951920;28;20474;-71
2020/12/18 01:40:45;;;;;;;17.05;7.25;;;;;;;4.16;100.00;101742.81;4924907;29;20420;-71
2020/12/18 01:43:12;;;;;;;16.92;6.93;;;;;;;4.19;100.00;101741.91;4946294;28;20039;-71
2020/12/18 01:45:42;;;;;;;18.92;7.93;;;;;;;4.22;100.00;101747.13;4942322;29;20555;-71
2020/12/18 01:48:12;;;;;;;14.45;7.78;;;;;;;4.22;100.00;101747.13;4964716;28;20035;-71
2020/12/18 01:50:47;;;;;;;14.27;7.30;;;;;;;4.36;100.00;101745.06;4957695;28;20035;-71
2020/12/18 01:53:14;;;;;;;20.55;8.07;;;;;;;4.29;100.00;101738.13;4963688;28;20027;-71
2020/12/18 01:56:04;;;;;;;22.25;7.43;;;;;;;4.50;100.00;101740.31;4945530;28;20039;-70
2020/12/18 01:58:32;;;;;;;16.30;7.28;;;;;;;4.47;100.00;101743.03;4949913;28;20031;-71
2020/12/18 02:01:03;;;;;;;16.45;7.38;;;;;;;4.52;100.00;101734.94;4964682;28;20031;-71
2020/12/18 02:03:37;;;;;;;18.40;7.32;;;;;;;4.62;100.00;101737.38;4960100;28;20038;-71
2020/12/18 02:06:18;;;;;;;14.68;6.40;;;;;;;4.66;100.00;101736.38;4978206;28;20506;-71
2020/12/18 02:09:09;;;;;;;27.77;7.93;;;;;;;4.62;100.00;101731.16;4963500;28;20324;-71
2020/12/18 02:11:40;;;;;;;24.70;8.90;;;;;;;4.54;100.00;101736.66;4947403;28;20057;-71
2020/12/18 02:14:13;;;;;;;16.58;7.60;;;;;;;4.48;100.00;101734.13;4960818;28;20448;-71
2020/12/18 02:16:40;;;;;;;16.33;7.47;;;;;;;4.41;100.00;101738.72;4932503;29;20035;-71
2020/12/18 02:19:14;;;;;;;17.80;7.18;;;;;;;4.46;100.00;101730.63;4942635;28;20026;-71
2020/12/18 02:21:40;;;;;;;18.90;8.07;;;;;;;4.39;100.00;101734.34;4947880;28;20388;-71
2020/12/18 02:24:10;;;;;;;18.77;8.07;;;;;;;4.37;100.00;101721.09;4963230;28;20558;-71
2020/12/18 02:26:37;;;;;;;21.83;7.18;;;;;;;4.32;100.00;101727.44;4949782;28;20039;-71
2020/12/18 02:29:03;;;;;;;18.83;8.10;;;;;;;4.33;100.00;101723.84;4945245;28;20034;-71
2020/12/18 02:31:37;;;;;;;17.70;7.20;;;;;;;4.32;100.00;101722.13;4963421;28;20126;-72
2020/12/18 02:34:27;;;;;;;22.73;7.18;;;;;;;4.25;100.00;101721.38;4946150;29;20098;-71
2020/12/18 02:36:58;;;;;;;16.58;6.35;;;;;;;4.34;100.00;101714.97;4962776;28;20055;-71
2020/12/18 02:39:28;;;;;;;23.35;7.50;;;;;;;4.26;100.00;101728.41;4957838;28;20111;-71
2020/12/18 02:41:58;;;;;;;20.35;6.78;;;;;;;4.21;100.00;101721.47;4965432;28;20082;-71
2020/12/18 02:44:44;;;;;;;18.52;7.05;;;;;;;4.23;100.00;101730.28;4937591;28;20043;-71
2020/12/18 02:47:32;;;;;;;15.05;6.80;;;;;;;4.25;100.00;101718.72;4937357;29;20082;-71
2020/12/18 02:50:02;;;;;;;11.98;6.30;;;;;;;4.23;100.00;101723.19;4945838;28;20046;-71
2020/12/18 02:52:40;;;;;;;13.85;7.03;;;;;;;4.22;100.00;101716.13;4948209;28;20059;-71
2020/12/18 02:55:32;;;;;;;18.70;6.10;;;;;;;4.26;100.00;101712.47;4927905;28;20057;-71
2020/12/18 02:58:23;;;;;;;17.13;6.15;;;;;;;4.29;100.00;101714.19;4946874;28;20042;-71
2020/12/18 03:00:52;;;;;;;16.33;6.05;;;;;;;4.19;100.00;101721.53;4933033;29;20400;-71
2020/12/18 03:03:20;;;;;;;18.58;6.25;;;;;;;4.30;100.00;101713.28;4929525;29;20050;-71
2020/12/18 03:05:50;;;;;;;12.13;6.20;;;;;;;4.28;100.00;101712.44;4944615;28;20042;-71
2020/12/18 03:08:24;;;;;;;13.02;6.30;;;;;;;4.19;100.00;101707.34;4948222;28;20050;-71
2020/12/18 03:10:52;;;;;;;15.25;6.40;;;;;;;4.20;100.00;101707.28;4915823;28;20071;-71
2020/12/18 03:13:17;;;;;;;18.77;6.07;;;;;;;4.25;100.00;101709.88;4949274;29;20089;-71
2020/12/18 03:15:42;;;;;;;20.13;6.18;;;;;;;4.21;100.00;101710.81;4943339;28;20035;-71
2020/12/18 03:18:23;;;;;;;14.15;7.13;;;;;;;4.18;100.00;101717.09;4931833;29;20122;-71
2020/12/18 03:20:48;;;;;;;15.30;6.80;;;;;;;4.05;100.00;101708.53;4947382;28;20050;-71
2020/12/18 03:23:37;;;;;;;15.52;6.28;;;;;;;3.98;100.00;101714.00;4922193;29;20089;-71
2020/12/18 03:26:11;;;;;;;14.93;5.78;;;;;;;3.96;100.00;101714.03;4964384;28;20035;-71
2020/12/18 03:28:44;;;;;;;21.85;6.50;;;;;;;4.02;100.00;101703.25;4932553;29;20023;-71
2020/12/18 03:31:10;;;;;;;17.15;6.53;;;;;;;3.96;100.00;101718.47;4925926;29;20035;-71
2020/12/18 03:33:36;;;;;;;16.48;6.38;;;;;;;3.92;100.00;101711.47;4934985;29;20585;-71
2020/12/18 03:36:19;;;;;;;16.77;6.93;;;;;;;4.08;100.00;101719.06;4954504;28;20089;-71
2020/12/18 03:38:44;;;;;;;16.40;7.13;;;;;;;3.94;100.00;101713.19;4927443;28;20515;-71
2020/12/18 03:41:10;;;;;;;19.20;6.85;;;;;;;4.00;100.00;101721.03;4946042;28;20522;-71
2020/12/18 03:43:36;;;;;;;17.92;7.07;;;;;;;4.12;100.00;101714.59;4948251;28;20030;-71
2020/12/18 03:46:04;;;;;;;15.90;7.22;;;;;;;4.11;100.00;101717.25;4929553;29;20038;-71
2020/12/18 03:48:50;;;;;;;22.70;6.97;;;;;;;4.14;100.00;101717.19;4948749;28;20055;-71
2020/12/18 03:51:25;;;;;;;16.48;7.00;;;;;;;4.24;100.00;101718.75;4931691;28;20067;-71
2020/12/18 03:53:52;;;;;;;19.27;6.70;;;;;;;4.13;100.00;101718.13;4925967;29;20039;-71
2020/12/18 03:56:30;;;;;;;16.40;6.95;;;;;;;4.06;100.00;101720.03;4948232;28;20066;-72
2020/12/18 03:59:19;;;;;;;14.07;6.45;;;;;;;3.87;100.00;101711.56;4937538;28;20090;-71
2020/12/18 04:02:03;;;;;;;14.43;5.78;;;;;;;3.82;100.00;101713.47;4930634;29;20551;-71
2020/12/18 04:04:30;;;;;;;16.90;6.78;;;;;;;3.77;100.00;101712.66;4936139;28;20031;-71
2020/12/18 04:07:00;;;;;;;17.33;6.32;;;;;;;3.68;100.00;101720.81;4932105;28;20032;-71
2020/12/18 04:09:27;;;;;;;14.70;6.20;;;;;;;3.61;100.00;101717.41;4933225;29;20042;-71
2020/12/18 04:12:00;;;;;;;;;;;;;;;3.57;100.00;101709.53;4934502;29;20502;-71
2020/12/18 04:14:34;;;;;;;14.30;6.22;;;;;;;3.61;100.00;101713.88;4967281;28;20004;-71
2020/12/18 04:17:07;;;;;;;17.40;6.43;;;;;;;3.58;100.00;101711.31;4948916;28;20145;-71
2020/12/18 04:19:33;;;;;;;15.13;5.85;;;;;;;3.56;100.00;101713.09;4946073;28;20155;-71
2020/12/18 04:21:59;;;;;;;18.10;6.22;;;;;;;3.58;100.00;101713.97;4966515;28;20480;-71
2020/12/18 04:24:47;;;;;;;17.10;6.10;;;;;;;3.48;100.00;101715.03;4941531;28;20097;-71
2020/12/18 04:27:14;;;;;;;17.95;6.53;;;;;;;3.47;100.00;101716.78;4963203;28;20042;-71
2020/12/18 04:29:40;;;;;;;17.98;6.90;;;;;;;3.49;100.00;101714.13;4933107;29;20403;-71
2020/12/18 04:32:07;;;;;;;14.60;5.85;;;;;;;3.50;100.00;101707.91;4951368;28;20027;-71
2020/12/18 04:34:33;;;;;;;15.63;6.22;;;;;;;3.55;100.00;101706.91;4951810;28;20635;-71
2020/12/18 04:37:17;;;;;;;13.85;5.72;;;;;;;3.60;100.00;101706.81;4949615;28;20041;-71
2020/12/18 04:40:03;;;;;;;21.30;6.60;;;;;;;4.03;100.00;101704.13;4941849;28;20043;-71
2020/12/18 04:42:34;;;;;;;14.95;6.22;;;;;;;3.96;100.00;101692.78;4948055;28;20070;-71
2020/12/18 04:45:03;;;;;;;16.50;7.63;;;;;;;4.11;100.00;101690.69;4936154;28;20031;-71
2020/12/18 04:47:36;;;;;;;20.83;7.30;;;;;;;4.15;100.00;101698.56;4951131;28;20059;-71
2020/12/18 04:50:02;;;;;;;14.65;7.22;;;;;;;4.11;100.00;101690.69;4960721;28;20038;-71
2020/12/18 04:52:29;;;;;;;20.77;7.50;;;;;;;4.12;100.00;101695.97;4968083;28;20098;-71
2020/12/18 04:54:59;;;;;;;20.38;8.02;;;;;;;4.17;100.00;101703.84;4947008;28;20090;-71
2020/12/18 04:57:57;;;;;;;19.35;7.35;;;;;;;4.17;100.00;101695.88;4951207;28;20534;-71
2020/12/18 05:00:25;;;;;;;30.00;9.55;;;;;;;4.14;100.00;101706.56;4967249;28;20030;-71
2020/12/18 05:03:14;;;;;;;20.90;8.52;;;;;;;4.04;100.00;101698.81;4950041;28;20047;-71
2020/12/18 05:05:41;;;;;;;22.77;9.13;;;;;;;3.95;100.00;101691.00;4934575;28;20373;-71
2020/12/18 05:08:12;;;;;;;26.05;9.00;;;;;;;3.99;100.00;101698.03;4960530;28;20057;-71
2020/12/18 05:10:40;;;;;;;21.02;8.32;;;;;;;3.99;100.00;101689.19;4947508;28;20045;-71
2020/12/18 05:13:13;;;;;;;19.67;8.40;;;;;;;3.98;100.00;101690.97;4948146;28;20030;-71
2020/12/18 05:15:48;;;;;;;18.35;8.52;;;;;;;4.12;100.00;101687.13;4960212;28;20036;-71
2020/12/18 05:18:33;;;;;;;17.08;8.45;;;;;;;4.00;100.00;101694.47;4948101;28;20122;-71
2020/12/18 05:21:06;;;;;;;23.88;8.73;;;;;;;3.99;100.00;101686.53;4966017;28;20035;-71
2020/12/18 05:23:46;;;;;;;23.50;8.75;;;;;;;3.97;100.00;101691.88;4950198;28;20035;-71
2020/12/18 05:26:18;;;;;;;16.60;8.65;;;;;;;3.97;100.00;101683.91;4960809;28;20085;-71
2020/12/18 05:28:50;;;;;;;24.42;9.98;;;;;;;4.01;100.00;101684.72;4949374;28;20039;-71
2020/12/18 05:31:19;;;;;;;19.95;9.00;;;;;;;4.19;100.00;101688.75;4949554;28;20031;-71
2020/12/18 05:34:04;;;;;;;22.45;8.55;;;;;;;4.15;100.00;101687.06;4951248;28;20518;-71
2020/12/18 05:37:01;;;;;;;24.02;10.48;;;;;;;4.09;100.00;101685.41;4948073;29;20058;-71
2020/12/18 05:39:47;;;;;;;19.98;9.57;;;;;;;4.15;100.00;101679.97;4965730;28;20035;-71
2020/12/18 05:42:19;;;;;;;23.45;10.18;;;;;;;4.03;100.00;101682.88;4963977;28;20476;-71
2020/12/18 05:44:45;;;;;;;25.15;10.38;;;;;;;4.01;100.00;101685.56;4947020;28;20027;-71
2020/12/18 05:47:33;;;;;;;26.95;10.25;;;;;;;3.95;100.00;101683.03;4943082;28;20110;-71
2020/12/18 05:49:59;;;;;;;26.60;10.20;;;;;;;3.94;100.00;101677.78;4964029;28;20027;-71
2020/12/18 05:52:29;;;;;;;30.98;11.07;;;;;;;3.94;100.00;101676.00;4963909;28;20030;-71
2020/12/18 05:55:10;;;;;;;23.60;10.80;;;;;;;4.00;100.00;101683.84;4961916;28;20063;-71
2020/12/18 05:57:45;;;;;;;28.23;10.68;;;;;;;3.97;100.00;101677.72;4979912;28;20046;-71
2020/12/18 06:00:16;;;;;;;25.17;11.25;;;;;;;3.91;100.00;101684.03;4969921;28;20034;-71
2020/12/18 06:03:00;;;;;;;26.70;10.38;;;;;;;3.91;100.00;101678.72;4945562;28;20046;-72
2020/12/18 06:05:38;;;;;;;21.63;9.77;;;;;;;3.99;100.00;101681.22;4969848;28;20058;-71
2020/12/18 06:08:17;;;;;;;16.98;9.30;;;;;;;3.97;100.00;101672.41;4960138;28;20468;-71
2020/12/18 06:10:48;;;;;;;26.50;11.00;;;;;;;3.88;100.00;101676.16;4964551;28;20035;-71
2020/12/18 06:13:24;;;;;;;21.33;10.55;;;;;;;4.02;100.00;101676.69;4959979;28;20035;-71
2020/12/18 06:16:10;;;;;;;25.42;11.90;;;;;;;3.98;100.00;101675.03;5016012;22;20125;-71
2020/12/18 06:19:16;;;;;;;30.35;10.85;;;;;;;4.04;100.00;101680.22;4933349;28;20195;-71
2020/12/18 06:21:59;;;;;;;43.20;13.70;;;;;;;4.04;100.00;101685.53;4931937;28;20050;-71
2020/12/18 06:24:44;;;;;;;38.90;14.13;;;;;;;4.02;100.00;101681.13;4935793;28;20608;-71
2020/12/18 06:27:26;;;;;;;31.80;11.68;;;;;;;3.99;100.00;101676.78;4956999;28;20035;-71
2020/12/18 06:30:09;;;;;;;27.20;12.52;;;;;;;3.91;100.00;101683.16;4950779;28;20074;-71
2020/12/18 06:33:07;;;;;;;34.15;16.15;;;;;;;3.87;100.00;101674.41;4950241;28;20058;-71
2020/12/18 06:35:47;;;;;;;39.55;14.00;;;;;;;3.88;100.00;101677.94;4944695;28;20042;-71
2020/12/18 06:38:37;;;;;;;36.92;14.45;;;;;;;3.91;100.00;101673.41;4949733;28;20043;-71
2020/12/18 06:41:25;;;;;;;27.45;11.95;;;;;;;3.87;100.00;101676.19;4950787;28;20142;-71
2020/12/18 06:44:33;;;;;;;41.60;15.38;;;;;;;3.91;100.00;101673.41;4944534;28;20097;-72
2020/12/18 06:47:30;;;;;;;30.17;12.65;;;;;;;3.75;100.00;101685.28;4961550;28;20035;-71
2020/12/18 06:50:34;;;;;;;24.13;11.73;;;;;;;3.82;100.00;101686.91;4952988;28;20086;-71
2020/12/18 06:53:18;;;;;;;25.55;11.50;;;;;;;3.81;100.00;101681.63;4960914;28;20510;-71
2020/12/18 06:56:06;;;;;;;30.48;14.80;;;;;;;3.82;100.00;101680.72;4948031;28;20065;-71
2020/12/18 06:58:42;;;;;;;26.38;12.30;;;;;;;3.96;100.00;101681.28;4946266;28;20032;-71
2020/12/18 07:01:08;;;;;;;26.90;12.60;;;;;;;3.80;100.00;101678.09;4950427;28;20042;-71
2020/12/18 07:03:45;;;;;;;32.13;12.70;;;;;;;3.84;100.00;101677.09;4950860;28;20035;-72
2020/12/18 07:06:26;;;;;;;24.58;11.70;;;;;;;3.87;100.00;101677.06;4951993;28;20047;-71
2020/12/18 07:08:55;;;;;;;26.10;12.48;;;;;;;3.76;100.00;101676.41;4948040;28;21550;-71
2020/12/18 07:11:20;;;;;;;36.38;12.80;;;;;;;3.76;100.00;101676.41;4953114;28;20239;-71
2020/12/18 07:13:52;;;;;;;33.17;12.98;;;;;;;3.86;100.00;101669.97;4949771;28;20042;-71
2020/12/18 07:16:21;;;;;;;32.78;12.25;;;;;;;3.98;100.00;101669.72;4951144;28;21394;-72
2020/12/18 07:18:50;;;;;;;29.58;10.88;;;;;;;4.01;100.00;101666.97;4949039;28;20031;-72
2020/12/18 07:21:18;;;;;;;23.33;10.88;;;;;;;4.08;100.00;101665.06;4970017;28;20034;-71
2020/12/18 07:23:48;;;;;;;24.60;11.50;;;;;;;4.04;100.00;101664.25;4953036;28;20368;-71
2020/12/18 07:26:16;;;;;;;23.25;10.32;;;;;;;4.01;100.00;101653.69;4969773;28;20039;-72
2020/12/18 07:28:42;;;;;;;23.60;10.60;;;;;;;4.08;100.00;101665.94;4951042;28;20062;-71
2020/12/18 07:31:22;;;;;;;28.70;11.70;;;;;;;4.04;100.00;101661.59;4968459;28;21691;-71
2020/12/18 07:33:58;;;;;;;25.35;10.77;;;;;;;4.11;100.00;101658.81;4968732;28;20105;-71
2020/12/18 07:36:28;;;;;;;26.15;10.43;;;;;;;4.13;100.00;101651.69;4972248;28;20164;-72
2020/12/18 07:38:57;;;;;;;24.90;11.30;;;;;;;4.18;100.00;101650.69;4953516;28;20038;-71
2020/12/18 07:41:24;;;;;;;26.50;11.30;;;;;;;4.26;100.00;101648.69;4957070;28;20030;-71
2020/12/18 07:43:50;;;;;;;27.67;9.90;;;;;;;4.16;100.00;101647.16;4973686;28;20046;-71
2020/12/18 07:46:19;;;;;;;23.10;9.73;;;;;;;4.21;100.00;101649.72;4976283;28;20382;-71
2020/12/18 07:48:46;;;;;;;24.40;10.30;;;;;;;4.20;100.00;101639.97;4973886;28;20163;-72
2020/12/18 07:51:19;;;;;;;18.40;9.10;;;;;;;4.30;100.00;101636.22;4973995;28;20039;-71
2020/12/18 07:53:51;;;;;;;44.33;19.92;;;;;;;4.29;100.00;101639.78;4973856;28;20027;-72
2020/12/18 07:56:17;;;;;;;23.77;11.27;;;;;;;4.33;100.00;101641.44;4973547;28;20030;-72
2020/12/18 07:58:51;;;;;;;18.60;8.63;;;;;;;4.39;100.00;101644.84;4973975;28;20046;-72
2020/12/18 08:01:36;;;;;;;28.27;9.88;;;;;;;4.30;100.00;101646.84;4969134;28;20030;-73
2020/12/18 08:04:12;;;;;;;39.55;16.63;;;;;;;4.42;100.00;101651.88;4972404;28;20031;-72
2020/12/18 08:06:39;;;;;;;21.77;12.55;;;;;;;4.47;100.00;101652.63;4956141;28;20138;-72
2020/12/18 08:09:12;;;;;;;20.77;10.40;;;;;;;4.55;100.00;101653.31;4972970;28;20089;-72
2020/12/18 08:11:44;;;;;;;14.95;8.43;;;;;;;4.53;100.00;101655.13;4971410;28;20043;-73
2020/12/18 08:14:11;;;;;;;27.67;9.95;;;;;;;4.60;100.00;101646.09;4955976;28;20037;-73
2020/12/18 08:16:38;;;;;;;28.05;9.38;;;;;;;4.67;100.00;101663.66;4972143;28;20035;-72
2020/12/18 08:19:06;;;;;;;25.90;10.75;;;;;;;4.62;100.00;101662.03;4972565;28;20452;-72
2020/12/18 08:21:40;;;;;;;22.80;9.63;;;;;;;4.71;100.00;101662.66;4973847;28;20480;-72
2020/12/18 08:24:16;;;;;;;21.92;9.35;;;;;;;4.73;100.00;101655.53;4968703;28;20503;-73
2020/12/18 08:26:50;;;;;;;20.42;7.82;;;;;;;4.80;100.00;101657.13;4975826;28;20084;-72
2020/12/18 08:29:18;;;;;;;24.48;8.73;;;;;;;4.87;100.00;101660.50;4971653;28;20027;-72
2020/12/18 08:31:45;;;;;;;20.70;8.95;;;;;;;4.88;100.00;101660.44;4972377;28;20029;-72
2020/12/18 08:34:12;;;;;;;18.70;7.50;;;;;;;4.96;100.00;101673.53;4967521;28;20034;-72
2020/12/18 08:36:44;;;;;;;20.73;8.10;;;;;;;4.97;100.00;101669.97;4974945;28;20097;-72
2020/12/18 08:39:11;;;;;;;23.42;7.85;;;;;;;4.98;100.00;101676.19;4972731;28;20038;-72
2020/12/18 08:41:39;;;;;;;30.33;9.93;;;;;;;5.02;100.00;101673.38;4973566;28;20038;-72
2020/12/18 08:44:06;;;;;;;24.02;7.93;;;;;;;5.08;100.00;101672.34;4968365;28;20129;-71
2020/12/18 08:46:34;;;;;;;24.55;8.70;;;;;;;5.15;100.00;101674.81;4977208;28;20482;-71
2020/12/18 08:49:00;;;;;;;23.90;7.78;;;;;;;5.10;100.00;101678.50;4972221;28;20026;-72
2020/12/18 08:51:27;;;;;;;20.90;8.15;;;;;;;5.17;100.00;101677.44;4976663;28;20046;-71
2020/12/18 08:53:52;;;;;;;19.85;8.07;;;;;;;5.21;100.00;101679.09;4968950;28;20031;-72
2020/12/18 08:56:19;;;;;;;16.90;8.05;;;;;;;5.20;100.00;101677.34;4974144;28;20061;-71
2020/12/18 08:58:45;;;;;;;16.30;8.23;;;;;;;5.35;100.00;101676.94;4973508;28;20041;-72
2020/12/18 09:01:24;;;;;;;17.40;7.28;;;;;;;5.39;100.00;101673.25;4971199;28;20039;-71
2020/12/18 09:03:49;;;;;;;16.67;8.13;;;;;;;5.34;100.00;101679.63;4971939;28;20526;-71
2020/12/18 09:06:15;;;;;;;25.48;8.35;;;;;;;5.36;100.00;101678.69;4971930;28;20122;-72
2020/12/18 09:08:41;;;;;;;20.73;8.35;;;;;;;5.38;100.00;101679.50;4971182;28;20026;-72
2020/12/18 09:11:06;;;;;;;18.90;7.72;;;;;;;5.50;100.00;101680.94;4964657;28;20117;-72
2020/12/18 09:13:37;;;;;;;19.73;7.68;;;;;;;5.48;100.00;101689.00;4971895;28;20101;-72
2020/12/18 09:16:04;;;;;;;15.93;8.30;;;;;;;5.33;100.00;101686.75;4948922;28;20034;-72
2020/12/18 09:18:34;;;;;;;19.55;9.13;;;;;;;5.37;100.00;101696.38;4967590;28;20129;-72
2020/12/18 09:21:17;;;;;;;18.35;8.57;;;;;;;5.42;100.00;101705.16;4975577;28;20085;-72
2020/12/18 09:23:46;;;;;;;18.00;8.10;;;;;;;5.42;100.00;101715.78;4968189;28;20031;-71
2020/12/18 09:26:21;;;;;;;22.73;8.80;;;;;;;5.40;100.00;101701.66;4971293;28;20039;-71
2020/12/18 09:28:47;;;;;;;22.42;8.70;;;;;;;5.56;100.00;101708.28;4955635;28;20046;-72
2020/12/18 09:31:12;;;;;;;24.58;10.48;;;;;;;5.63;100.00;101704.53;4972792;28;20034;-72
2020/12/18 09:33:38;;;;;;;24.85;9.77;;;;;;;5.64;100.00;101716.06;4975099;28;20081;-71
2020/12/18 09:36:06;;;;;;;23.98;8.32;;;;;;;5.66;100.00;101709.78;4971816;28;20510;-71
2020/12/18 09:38:33;;;;;;;17.00;7.93;;;;;;;5.69;100.00;101709.69;4974436;28;20027;-72
2020/12/18 09:41:00;;;;;;;31.02;10.55;;;;;;;5.64;100.00;101711.63;4972326;28;20396;-71
2020/12/18 09:43:26;;;;;;;18.15;7.90;;;;;;;5.74;100.00;101706.03;4971232;28;20037;-72
2020/12/18 09:45:54;;;;;;;18.17;8.35;;;;;;;5.76;100.00;101709.50;4971468;28;20089;-71
2020/12/18 09:48:20;;;;;;;24.10;7.70;;;;;;;5.75;100.00;101718.41;4970318;28;20034;-72
2020/12/18 09:50:48;;;;;;;20.75;8.50;;;;;;;5.79;100.00;101715.66;4971078;28;20031;-72
2020/12/18 09:53:13;;;;;;;23.83;8.52;;;;;;;5.77;100.00;101722.78;4972520;28;20506;-72
2020/12/18 09:55:39;;;;;;;24.45;9.05;;;;;;;5.84;100.00;101719.03;4972104;28;20081;-72
2020/12/18 09:58:04;;;;;;;22.48;10.60;;;;;;;5.82;100.00;101722.66;4971586;28;20433;-71
2020/12/18 10:00:30;;;;;;;61.10;22.27;;;;;;;5.92;100.00;101733.06;4970616;28;20031;-72
2020/12/18 10:02:56;;;;;;;80.72;24.10;;;;;;;5.99;100.00;101723.06;4965036;28;20130;-72
2020/12/18 10:05:22;;;;;;;81.70;25.83;;;;;;;6.09;100.00;101725.44;4975160;28;20117;-71
2020/12/18 10:07:47;;;;;;;110.88;33.45;;;;;;;6.18;100.00;101728.72;4975703;28;20421;-71
2020/12/18 10:10:13;;;;;;;136.70;35.05;;;;;;;6.21;100.00;101724.19;4954387;28;20038;-71
2020/12/18 10:12:38;;;;;;;39.42;14.07;;;;;;;6.35;100.00;101722.00;4952574;28;20505;-71
2020/12/18 10:15:04;;;;;;;37.50;12.73;;;;;;;6.43;100.00;101717.25;4953267;28;20031;-71
2020/12/18 10:17:30;;;;;;;29.38;10.85;;;;;;;6.51;100.00;101711.69;4970749;28;20034;-71
2020/12/18 10:19:55;;;;;;;27.30;10.77;;;;;;;6.63;100.00;101715.75;4967935;28;20041;-72
2020/12/18 10:22:20;;;;;;;25.65;10.68;;;;;;;6.65;100.00;101719.28;4970118;28;20027;-71
2020/12/18 10:24:46;;;;;;;29.45;11.07;;;;;;;6.70;100.00;101717.31;4952848;28;20552;-71
2020/12/18 10:27:12;;;;;;;27.75;9.23;;;;;;;6.81;100.00;101717.84;4968865;28;20046;-71
2020/12/18 10:29:38;;;;;;;29.27;10.93;;;;;;;6.91;100.00;101711.28;4969466;28;20041;-72
2020/12/18 10:32:03;;;;;;;22.60;8.88;;;;;;;6.80;100.00;101708.06;4969987;28;20046;-72
2020/12/18 10:34:29;;;;;;;23.88;9.43;;;;;;;7.00;100.00;101710.97;4970918;28;20526;-71
2020/12/18 10:36:55;;;;;;;18.48;8.90;;;;;;;6.99;100.00;101713.69;4959734;28;20536;-72
2020/12/18 10:39:23;;;;;;;21.02;9.40;;;;;;;7.12;100.00;101715.88;4968647;28;20096;-72
2020/12/18 10:41:53;;;;;;;25.17;9.23;;;;;;;7.19;100.00;101720.09;4976866;28;20038;-72
2020/12/18 10:44:20;;;;;;;29.00;8.82;;;;;;;7.40;100.00;101725.63;4970460;28;20134;-71
2020/12/18 10:46:47;;;;;;;28.58;9.63;;;;;;;7.54;100.00;101717.97;4968394;28;20030;-73
2020/12/18 10:49:13;;;;;;;21.27;8.75;;;;;;;7.50;100.00;101713.69;4963475;28;20053;-72
2020/12/18 10:51:42;;;;;;;25.27;8.68;;;;;;;7.52;100.00;101715.38;4962155;28;20038;-71
2020/12/18 10:54:09;;;;;;;22.60;8.90;;;;;;;7.64;100.00;101709.59;4963870;28;20125;-72
2020/12/18 10:56:43;;;;;;;21.40;8.80;;;;;;;7.61;100.00;101708.81;4937168;28;20049;-72
2020/12/18 10:59:09;;;;;;;18.95;8.40;;;;;;;7.70;100.00;101698.69;4967245;28;20026;-72
2020/12/18 11:01:35;;;;;;;22.00;8.60;;;;;;;7.79;100.00;101701.91;4965393;28;20034;-74
2020/12/18 11:04:01;;;;;;;24.10;9.05;;;;;;;7.83;100.00;101696.44;4965628;28;20031;-72
2020/12/18 11:06:28;;;;;;;20.60;9.32;;;;;;;8.05;100.00;101689.31;4966858;28;20035;-72
2020/12/18 11:08:53;;;;;;;20.33;7.60;;;;;;;8.15;100.00;101686.31;4968326;28;20031;-72
2020/12/18 11:11:18;;;;;;;14.00;7.22;;;;;;;8.08;100.00;101689.19;4967793;28;20042;-72
2020/12/18 11:13:44;;;;;;;20.67;7.90;;;;;;;8.06;100.00;101680.38;4967334;28;20380;-72
2020/12/18 11:16:11;;;;;;;18.98;6.97;;;;;;;8.21;100.00;101686.06;4971896;28;20089;-73
2020/12/18 11:18:37;;;;;;;15.23;7.00;;;;;;;8.29;100.00;101683.94;4972728;28;20069;-73
2020/12/18 11:21:03;;;;;;;15.70;6.68;;;;;;;8.35;100.00;101681.06;4970391;28;20073;-71
2020/12/18 11:23:29;;;;;;;14.82;6.22;;;;;;;8.36;100.00;101666.75;4972091;28;20035;-72
2020/12/18 11:25:55;;;;;;;13.52;6.38;;;;;;;8.41;100.00;101660.28;4954461;28;20035;-73
2020/12/18 11:28:20;;;;;;;16.80;6.13;;;;;;;8.56;100.00;101666.81;4972254;28;20090;-71
2020/12/18 11:30:45;;;;;;;19.20;6.63;;;;;;;8.66;100.00;101653.94;4972111;28;20043;-73
2020/12/18 11:33:11;;;;;;;18.10;6.55;;;;;;;8.63;100.00;101646.91;4969797;28;20114;-72